Celandine — ONDN — position and weather

sailwx.info

Track history (hours):
 
Tides and Currents Weather Stations Pressure Air Temp Water Temp Dewpoint Dewpoint Depression Visibility Wind Speed Wind Dir Waves Ship Positions

Celandine

Last reported at 2014-Oct-26 01:31 UTC. Time now 2014-Oct-26 01:49 UTC.
Position N 51°21' E 003°13'.

Length 162 m; draft 5.8 m.

Type: Ship (hazmat cat A). MMSI: 205476000.

Date/timePositionNaut miles runAvg speedWind from/ knotsBaromVisibWave heightAir tempDewpointWater temp
2014-Oct-26 01:31N 51°21' E 003°13'0 0.0
2014-Oct-26 00:31N 51°21' E 003°13'0 0.0
2014-Oct-25 23:28N 51°21' E 003°13'0 0.0
2014-Oct-25 22:16N 51°21' E 003°13'0 0.0
2014-Oct-25 21:04N 51°21' E 003°13'0 0.0
2014-Oct-25 20:28N 51°21' E 003°13'1 1.5
2014-Oct-25 19:33N 51°22' E 003°12'1615.3
2014-Oct-25 18:31N 51°27' E 002°48'1616.5
2014-Oct-25 17:33N 51°30' E 002°23'1616.2
2014-Oct-25 16:34N 51°34' E 001°58'1818.0
2014-Oct-25 15:34N 51°29' E 001°30'1717.3
2014-Oct-25 14:33N 51°29' E 001°02'1717.3
2014-Oct-25 13:34N 51°30' E 000°34'10 9.7
2014-Oct-25 12:34N 51°28' E 000°19'3 2.6
2014-Oct-25 11:33N 51°28' E 000°15'0 0.0
2014-Oct-25 10:32N 51°28' E 000°15'0 0.0
2014-Oct-25 09:32N 51°28' E 000°15'0 0.0
2014-Oct-25 08:32N 51°28' E 000°15'0 0.0
2014-Oct-25 07:32N 51°28' E 000°15'0 0.0
2014-Oct-25 06:32N 51°28' E 000°15'0 0.0
2014-Oct-25 05:32N 51°28' E 000°15'0 0.0
2014-Oct-25 04:32N 51°28' E 000°15'0 0.0
2014-Oct-25 03:32N 51°28' E 000°15'0 0.0
2014-Oct-25 02:32N 51°28' E 000°15'0 0.0
2014-Oct-25 01:32N 51°28' E 000°15'0 0.0
2014-Oct-25 00:32N 51°28' E 000°15'0 0.0
2014-Oct-24 23:32N 51°28' E 000°15'2 2.6
2014-Oct-24 22:34N 51°28' E 000°19'1313.3
2014-Oct-24 21:33N 51°30' E 000°40'1717.2
2014-Oct-24 20:33N 51°29' E 001°08'1615.7
2014-Oct-24 19:34N 51°30' E 001°33'1413.9
2014-Oct-24 18:34N 51°37' E 001°52'2412.0
2014-Oct-24 16:33N 51°35' E 002°31'1312.6
2014-Oct-24 15:33N 51°31' E 002°50'1414.1
2014-Oct-24 14:33N 51°24' E 003°10'4 3.6
2014-Oct-24 13:31N 51°21' E 003°13'0 0.0
2014-Oct-24 12:28N 51°21' E 003°13'0 0.1
2014-Oct-24 07:33N 51°21' E 003°12'1414.4
2014-Oct-24 06:33N 51°27' E 002°51'1515.4
2014-Oct-24 05:33N 51°30' E 002°27'1615.9
2014-Oct-24 04:34N 51°31' E 002°02'1616.1
2014-Oct-24 03:33N 51°30' E 001°36'1818.1
2014-Oct-24 02:33N 51°29' E 001°07'1818.5
2014-Oct-24 01:33N 51°30' E 000°37'1111.1
2014-Oct-24 00:33N 51°27' E 000°20'3 3.1
2014-Oct-23 23:33N 51°28' E 000°15'0 0.0
2014-Oct-23 22:32N 51°28' E 000°15'0 0.0
2014-Oct-23 21:32N 51°28' E 000°15'0 0.0
2014-Oct-23 20:32N 51°28' E 000°15'0 0.0
2014-Oct-23 19:32N 51°28' E 000°15'0 0.0
2014-Oct-23 18:33N 51°28' E 000°15'0 0.2
2014-Oct-23 17:33N 51°28' E 000°15'4 4.1
2014-Oct-23 16:34N 51°27' E 000°22'9 9.4
2014-Oct-23 15:33N 51°30' E 000°36'1212.3
2014-Oct-23 14:33N 51°29' E 000°56'1413.8
2014-Oct-23 13:33N 51°29' E 001°18'1515.1
2014-Oct-23 12:33N 51°31' E 001°42'1514.8
2014-Oct-23 11:33N 51°34' E 002°05'1515.1
2014-Oct-23 10:33N 51°30' E 002°29'1615.4
2014-Oct-23 09:32N 51°26' E 002°53'1413.4
2014-Oct-23 08:30N 51°21' E 003°13'0 0.0
2014-Oct-23 05:17N 51°21' E 003°13'0 0.0
2014-Oct-23 04:23N 51°21' E 003°13'0 0.0
2014-Oct-23 03:23N 51°21' E 003°13'0 0.0
2014-Oct-23 02:26N 51°21' E 003°13'0 0.0
2014-Oct-23 01:29N 51°21' E 003°13'0 0.0
2014-Oct-23 00:34N 51°21' E 003°13'1311.8
2014-Oct-22 23:30N 51°27' E 002°56'1616.4
2014-Oct-22 22:32N 51°34' E 002°33'1616.6
2014-Oct-22 21:34N 51°37' E 002°08'1515.3
2014-Oct-22 20:34N 51°33' E 001°44'1514.9
2014-Oct-22 19:33N 51°28' E 001°21'1312.9
2014-Oct-22 18:34N 51°29' E 001°00'1716.8
2014-Oct-22 17:34N 51°30' E 000°33'1010.0
2014-Oct-22 16:34N 51°28' E 000°18'2 1.6
2014-Oct-22 15:32N 51°28' E 000°15'0 0.0
2014-Oct-22 14:32N 51°28' E 000°15'0 0.0
2014-Oct-22 13:32N 51°28' E 000°15'0 0.0
2014-Oct-22 12:32N 51°28' E 000°15'0 0.0
2014-Oct-22 11:32N 51°28' E 000°15'0 0.0
2014-Oct-22 10:32N 51°28' E 000°15'0 0.0
2014-Oct-22 09:32N 51°28' E 000°15'0 0.0
2014-Oct-22 08:32N 51°28' E 000°15'0 0.0
2014-Oct-22 07:32N 51°28' E 000°15'2 1.7
2014-Oct-22 06:34N 51°28' E 000°18'1010.2
2014-Oct-22 05:34N 51°30' E 000°34'1414.2
2014-Oct-22 04:33N 51°29' E 000°56'1413.7
2014-Oct-22 03:33N 51°29' E 001°18'1313.2
2014-Oct-22 02:33N 51°29' E 001°40'1313.2
2014-Oct-22 01:34N 51°26' E 001°60'1312.7
2014-Oct-22 00:33N 51°21' E 002°19'2611.4
2014-Oct-21 22:20N 51°24' E 002°60'811.1
2014-Oct-21 21:34N 51°21' E 003°12'1 0.6
2014-Oct-21 20:32N 51°21' E 003°13'0 0.0
2014-Oct-21 19:33N 51°21' E 003°13'0 0.0
2014-Oct-21 18:27N 51°21' E 003°13'0 0.0
2014-Oct-21 17:18N 51°21' E 003°13'0 0.0
2014-Oct-21 16:12N 51°21' E 003°13'0 0.0
2014-Oct-21 15:21N 51°21' E 003°13'0 0.0
2014-Oct-21 14:06N 51°21' E 003°13'0 0.2
2014-Oct-21 13:33N 51°21' E 003°13'9 9.2
2014-Oct-21 12:33N 51°25' E 003°00'10 9.9
2014-Oct-21 11:33N 51°31' E 002°47'1616.5
2014-Oct-21 10:33N 51°37' E 002°22'1717.3
2014-Oct-21 09:33N 51°35' E 001°54'1616.5
2014-Oct-21 08:33N 51°29' E 001°30'1414.4
2014-Oct-21 07:34N 51°29' E 001°07'1515.0
2014-Oct-21 06:33N 51°30' E 000°43'1212.4
2014-Oct-21 05:34N 51°27' E 000°23'5 5.4
2014-Oct-21 04:34N 51°28' E 000°15'0 0.0
2014-Oct-21 03:31N 51°28' E 000°15'0 0.0
2014-Oct-21 02:31N 51°28' E 000°15'0 0.0
2014-Oct-21 01:31N 51°28' E 000°15'0 0.0
2014-Oct-21 00:31N 51°28' E 000°15'0 0.0
2014-Oct-20 23:31N 51°28' E 000°15'2 2.6
2014-Oct-20 22:34N 51°28' E 000°19'1211.8
2014-Oct-20 21:34N 51°30' E 000°37'1616.3
2014-Oct-20 20:34N 51°30' E 001°04'1616.3
2014-Oct-20 19:34N 51°29' E 001°30'1414.0
2014-Oct-20 18:34N 51°36' E 001°50'1413.7
2014-Oct-20 17:33N 51°43' E 002°09'1312.9
2014-Oct-20 16:33N 51°36' E 002°26'1412.5
2014-Oct-20 15:25N 51°32' E 002°48'1213.4
2014-Oct-20 14:31N 51°25' E 003°04'7 7.6
2014-Oct-20 13:33N 51°21' E 003°13'0 0.0
2014-Oct-20 12:32N 51°21' E 003°13'0 0.0
2014-Oct-20 11:32N 51°21' E 003°13'0 0.0
2014-Oct-20 10:32N 51°21' E 003°13'0 0.0
2014-Oct-20 09:32N 51°21' E 003°13'0 0.0
2014-Oct-20 08:26N 51°21' E 003°13'0 0.0
2014-Oct-20 07:26N 51°21' E 003°13'0 0.0
2014-Oct-20 06:14N 51°21' E 003°13'0 0.0
2014-Oct-20 05:32N 51°21' E 003°13'0 0.0
2014-Oct-20 04:32N 51°21' E 003°13'0 0.0
2014-Oct-20 03:32N 51°21' E 003°13'0 0.0
2014-Oct-20 02:20N 51°21' E 003°13'0 0.0
2014-Oct-20 01:11N 51°21' E 003°13'0 0.0
2014-Oct-20 00:32N 51°21' E 003°13'0 0.0
2014-Oct-19 23:23N 51°21' E 003°13'0 0.0
2014-Oct-19 20:14N 51°21' E 003°13'0 0.0
2014-Oct-19 18:20N 51°21' E 003°13'0 0.0
2014-Oct-19 16:20N 51°21' E 003°13'0 0.0
2014-Oct-19 15:23N 51°21' E 003°13'0 0.0
2014-Oct-19 14:26N 51°21' E 003°13'0 0.0
2014-Oct-19 13:29N 51°21' E 003°13'0 0.0
2014-Oct-19 12:14N 51°21' E 003°13'0 0.0
2014-Oct-19 11:08N 51°21' E 003°13'0 0.0
2014-Oct-19 10:23N 51°21' E 003°13'0 0.0
2014-Oct-19 09:32N 51°21' E 003°13'0 0.0
2014-Oct-19 08:32N 51°21' E 003°13'0 0.0
2014-Oct-19 07:26N 51°21' E 003°13'0 0.0
2014-Oct-19 06:26N 51°21' E 003°13'0 0.0
2014-Oct-19 05:32N 51°21' E 003°13'0 0.0
2014-Oct-19 04:26N 51°21' E 003°13'0 0.0
2014-Oct-19 03:26N 51°21' E 003°13'0 0.0
2014-Oct-19 02:20N 51°21' E 003°13'0 0.0
2014-Oct-19 01:29N 51°21' E 003°13'0 0.0
2014-Oct-19 00:32N 51°21' E 003°13'0 0.0
2014-Oct-18 23:29N 51°21' E 003°13'4 4.1
2014-Oct-18 22:31N 51°23' E 003°09'2115.6
2014-Oct-18 21:09N 51°35' E 002°39'916.1
2014-Oct-18 20:33N 51°37' E 002°25'1615.9
2014-Oct-18 19:33N 51°37' E 001°59'1716.9
2014-Oct-18 18:34N 51°30' E 001°35'1514.7
2014-Oct-18 17:33N 51°29' E 001°11'1514.6
2014-Oct-18 16:33N 51°29' E 000°48'1514.5
2014-Oct-18 15:34N 51°27' E 000°25'6 6.3
2014-Oct-18 14:33N 51°28' E 000°15'0 0.0
2014-Oct-18 13:32N 51°28' E 000°15'0 0.0
2014-Oct-18 12:32N 51°28' E 000°15'0 0.0
2014-Oct-18 11:32N 51°28' E 000°15'0 0.0
2014-Oct-18 10:32N 51°28' E 000°15'0 0.0
2014-Oct-18 09:32N 51°28' E 000°15'0 0.0
2014-Oct-18 08:32N 51°28' E 000°15'0 0.0
2014-Oct-18 07:32N 51°28' E 000°15'3 2.7
2014-Oct-18 06:34N 51°28' E 000°19'1110.7
2014-Oct-18 05:33N 51°30' E 000°36'1616.1
2014-Oct-18 04:33N 51°30' E 001°02'1616.0
2014-Oct-18 03:34N 51°29' E 001°28'1413.9
2014-Oct-18 02:33N 51°34' E 001°48'10 9.6
2014-Oct-18 01:33N 51°38' E 002°03'1212.0
2014-Oct-18 00:33N 51°39' E 002°22'1211.4
2014-Oct-17 23:29N 51°35' E 002°40'1311.9
2014-Oct-17 22:23N 51°27' E 002°57'12 6.3
2014-Oct-17 20:31N 51°21' E 003°13'0 0.0
2014-Oct-17 19:28N 51°21' E 003°13'0 0.0
2014-Oct-17 18:07N 51°21' E 003°13'0 0.0
2014-Oct-17 17:28N 51°21' E 003°13'0 0.0
2014-Oct-17 16:31N 51°21' E 003°13'0 0.0
2014-Oct-17 15:28N 51°21' E 003°13'0 0.0
2014-Oct-17 14:10N 51°21' E 003°13'0 0.0
2014-Oct-17 13:28N 51°21' E 003°13'1 0.9
2014-Oct-17 12:33N 51°21' E 003°12'1615.3
2014-Oct-17 11:31N 51°30' E 002°51'1616.0
2014-Oct-17 10:33N 51°36' E 002°28'1616.4
2014-Oct-17 09:34N 51°38' E 002°02'1817.9
2014-Oct-17 08:34N 51°30' E 001°36'1717.3
2014-Oct-17 07:34N 51°29' E 001°08'1716.9
2014-Oct-17 06:34N 51°30' E 000°41'1212.0
2014-Oct-17 05:34N 51°27' E 000°23'5 5.0
2014-Oct-17 04:34N 51°28' E 000°15'0 0.0
2014-Oct-17 03:32N 51°28' E 000°15'0 0.0
2014-Oct-17 02:32N 51°28' E 000°15'0 0.0
2014-Oct-17 01:32N 51°28' E 000°15'0 0.0
2014-Oct-17 00:32N 51°28' E 000°15'0 0.0
2014-Oct-16 23:32N 51°28' E 000°15'2 2.3
2014-Oct-16 22:34N 51°28' E 000°18'9 8.5
2014-Oct-16 21:33N 51°30' E 000°32'1312.9
2014-Oct-16 20:33N 51°30' E 000°53'1414.0
2014-Oct-16 19:34N 51°29' E 001°15'1413.8
2014-Oct-16 18:33N 51°31' E 001°37'1413.6
2014-Oct-16 17:33N 51°36' E 001°57'1514.5
2014-Oct-16 16:33N 51°35' E 002°21'1514.9
2014-Oct-16 15:33N 51°33' E 002°45'1515.5
2014-Oct-16 14:33N 51°24' E 003°05'6 6.0
2014-Oct-16 13:33N 51°21' E 003°13'0 0.0
2014-Oct-16 12:32N 51°21' E 003°13'0 0.0
2014-Oct-16 11:32N 51°21' E 003°13'0 0.0
2014-Oct-16 10:32N 51°21' E 003°13'0 0.0
2014-Oct-16 09:29N 51°21' E 003°13'0 0.0
2014-Oct-16 08:32N 51°21' E 003°13'0 0.1
2014-Oct-16 07:32N 51°21' E 003°13'1010.7
2014-Oct-16 06:33N 51°26' E 002°59'1616.4
2014-Oct-16 05:33N 51°34' E 002°36'1717.4
2014-Oct-16 04:33N 51°32' E 002°08'1615.9
2014-Oct-16 03:33N 51°32' E 001°42'1615.7
2014-Oct-16 02:34N 51°29' E 001°18'1514.5
2014-Oct-16 01:34N 51°29' E 000°54'  
Track history (hours):
 
Tides and Currents Weather Stations Pressure Air Temp Water Temp Dewpoint Dewpoint Depression Visibility Wind Speed Wind Dir Waves Ship Positions

Celandine

Last reported at 2014-Oct-26 01:31 UTC. Time now 2014-Oct-26 01:49 UTC.
Position N 51°21' E 003°13'.

Length 162 m; draft 5.8 m.

Type: Ship (hazmat cat A). MMSI: 205476000.

Date/timePositionNaut miles runAvg speedWind from/ knotsBaromVisibWave heightAir tempDewpointWater temp
2014-Oct-26 01:31N 51°21' E 003°13'0 0.0
2014-Oct-26 00:31N 51°21' E 003°13'0 0.0
2014-Oct-25 23:28N 51°21' E 003°13'0 0.0
2014-Oct-25 22:16N 51°21' E 003°13'0 0.0
2014-Oct-25 21:04N 51°21' E 003°13'0 0.0
2014-Oct-25 20:28N 51°21' E 003°13'1 1.5
2014-Oct-25 19:33N 51°22' E 003°12'1615.3
2014-Oct-25 18:31N 51°27' E 002°48'1616.5
2014-Oct-25 17:33N 51°30' E 002°23'1616.2
2014-Oct-25 16:34N 51°34' E 001°58'1818.0
2014-Oct-25 15:34N 51°29' E 001°30'1717.3
2014-Oct-25 14:33N 51°29' E 001°02'1717.3
2014-Oct-25 13:34N 51°30' E 000°34'10 9.7
2014-Oct-25 12:34N 51°28' E 000°19'3 2.6
2014-Oct-25 11:33N 51°28' E 000°15'0 0.0
2014-Oct-25 10:32N 51°28' E 000°15'0 0.0
2014-Oct-25 09:32N 51°28' E 000°15'0 0.0
2014-Oct-25 08:32N 51°28' E 000°15'0 0.0
2014-Oct-25 07:32N 51°28' E 000°15'0 0.0
2014-Oct-25 06:32N 51°28' E 000°15'0 0.0
2014-Oct-25 05:32N 51°28' E 000°15'0 0.0
2014-Oct-25 04:32N 51°28' E 000°15'0 0.0
2014-Oct-25 03:32N 51°28' E 000°15'0 0.0
2014-Oct-25 02:32N 51°28' E 000°15'0 0.0
2014-Oct-25 01:32N 51°28' E 000°15'0 0.0
2014-Oct-25 00:32N 51°28' E 000°15'0 0.0
2014-Oct-24 23:32N 51°28' E 000°15'2 2.6
2014-Oct-24 22:34N 51°28' E 000°19'1313.3
2014-Oct-24 21:33N 51°30' E 000°40'1717.2
2014-Oct-24 20:33N 51°29' E 001°08'1615.7
2014-Oct-24 19:34N 51°30' E 001°33'1413.9
2014-Oct-24 18:34N 51°37' E 001°52'2412.0
2014-Oct-24 16:33N 51°35' E 002°31'1312.6
2014-Oct-24 15:33N 51°31' E 002°50'1414.1
2014-Oct-24 14:33N 51°24' E 003°10'4 3.6
2014-Oct-24 13:31N 51°21' E 003°13'0 0.0
2014-Oct-24 12:28N 51°21' E 003°13'0 0.1
2014-Oct-24 07:33N 51°21' E 003°12'1414.4
2014-Oct-24 06:33N 51°27' E 002°51'1515.4
2014-Oct-24 05:33N 51°30' E 002°27'1615.9
2014-Oct-24 04:34N 51°31' E 002°02'1616.1
2014-Oct-24 03:33N 51°30' E 001°36'1818.1
2014-Oct-24 02:33N 51°29' E 001°07'1818.5
2014-Oct-24 01:33N 51°30' E 000°37'1111.1
2014-Oct-24 00:33N 51°27' E 000°20'3 3.1
2014-Oct-23 23:33N 51°28' E 000°15'0 0.0
2014-Oct-23 22:32N 51°28' E 000°15'0 0.0
2014-Oct-23 21:32N 51°28' E 000°15'0 0.0
2014-Oct-23 20:32N 51°28' E 000°15'0 0.0
2014-Oct-23 19:32N 51°28' E 000°15'0 0.0
2014-Oct-23 18:33N 51°28' E 000°15'0 0.2
2014-Oct-23 17:33N 51°28' E 000°15'4 4.1
2014-Oct-23 16:34N 51°27' E 000°22'9 9.4
2014-Oct-23 15:33N 51°30' E 000°36'1212.3
2014-Oct-23 14:33N 51°29' E 000°56'1413.8
2014-Oct-23 13:33N 51°29' E 001°18'1515.1
2014-Oct-23 12:33N 51°31' E 001°42'1514.8
2014-Oct-23 11:33N 51°34' E 002°05'1515.1
2014-Oct-23 10:33N 51°30' E 002°29'1615.4
2014-Oct-23 09:32N 51°26' E 002°53'1413.4
2014-Oct-23 08:30N 51°21' E 003°13'0 0.0
2014-Oct-23 05:17N 51°21' E 003°13'0 0.0
2014-Oct-23 04:23N 51°21' E 003°13'0 0.0
2014-Oct-23 03:23N 51°21' E 003°13'0 0.0
2014-Oct-23 02:26N 51°21' E 003°13'0 0.0
2014-Oct-23 01:29N 51°21' E 003°13'0 0.0
2014-Oct-23 00:34N 51°21' E 003°13'1311.8
2014-Oct-22 23:30N 51°27' E 002°56'1616.4
2014-Oct-22 22:32N 51°34' E 002°33'1616.6
2014-Oct-22 21:34N 51°37' E 002°08'1515.3
2014-Oct-22 20:34N 51°33' E 001°44'1514.9
2014-Oct-22 19:33N 51°28' E 001°21'1312.9
2014-Oct-22 18:34N 51°29' E 001°00'1716.8
2014-Oct-22 17:34N 51°30' E 000°33'1010.0
2014-Oct-22 16:34N 51°28' E 000°18'2 1.6
2014-Oct-22 15:32N 51°28' E 000°15'0 0.0
2014-Oct-22 14:32N 51°28' E 000°15'0 0.0
2014-Oct-22 13:32N 51°28' E 000°15'0 0.0
2014-Oct-22 12:32N 51°28' E 000°15'0 0.0
2014-Oct-22 11:32N 51°28' E 000°15'0 0.0
2014-Oct-22 10:32N 51°28' E 000°15'0 0.0
2014-Oct-22 09:32N 51°28' E 000°15'0 0.0
2014-Oct-22 08:32N 51°28' E 000°15'0 0.0
2014-Oct-22 07:32N 51°28' E 000°15'2 1.7
2014-Oct-22 06:34N 51°28' E 000°18'1010.2
2014-Oct-22 05:34N 51°30' E 000°34'1414.2
2014-Oct-22 04:33N 51°29' E 000°56'1413.7
2014-Oct-22 03:33N 51°29' E 001°18'1313.2
2014-Oct-22 02:33N 51°29' E 001°40'1313.2
2014-Oct-22 01:34N 51°26' E 001°60'1312.7
2014-Oct-22 00:33N 51°21' E 002°19'2611.4
2014-Oct-21 22:20N 51°24' E 002°60'811.1
2014-Oct-21 21:34N 51°21' E 003°12'1 0.6
2014-Oct-21 20:32N 51°21' E 003°13'0 0.0
2014-Oct-21 19:33N 51°21' E 003°13'0 0.0
2014-Oct-21 18:27N 51°21' E 003°13'0 0.0
2014-Oct-21 17:18N 51°21' E 003°13'0 0.0
2014-Oct-21 16:12N 51°21' E 003°13'0 0.0
2014-Oct-21 15:21N 51°21' E 003°13'0 0.0
2014-Oct-21 14:06N 51°21' E 003°13'0 0.2
2014-Oct-21 13:33N 51°21' E 003°13'9 9.2
2014-Oct-21 12:33N 51°25' E 003°00'10 9.9
2014-Oct-21 11:33N 51°31' E 002°47'1616.5
2014-Oct-21 10:33N 51°37' E 002°22'1717.3
2014-Oct-21 09:33N 51°35' E 001°54'1616.5
2014-Oct-21 08:33N 51°29' E 001°30'1414.4
2014-Oct-21 07:34N 51°29' E 001°07'1515.0
2014-Oct-21 06:33N 51°30' E 000°43'1212.4
2014-Oct-21 05:34N 51°27' E 000°23'5 5.4
2014-Oct-21 04:34N 51°28' E 000°15'0 0.0
2014-Oct-21 03:31N 51°28' E 000°15'0 0.0
2014-Oct-21 02:31N 51°28' E 000°15'0 0.0
2014-Oct-21 01:31N 51°28' E 000°15'0 0.0
2014-Oct-21 00:31N 51°28' E 000°15'0 0.0
2014-Oct-20 23:31N 51°28' E 000°15'2 2.6
2014-Oct-20 22:34N 51°28' E 000°19'1211.8
2014-Oct-20 21:34N 51°30' E 000°37'1616.3
2014-Oct-20 20:34N 51°30' E 001°04'1616.3
2014-Oct-20 19:34N 51°29' E 001°30'1414.0
2014-Oct-20 18:34N 51°36' E 001°50'1413.7
2014-Oct-20 17:33N 51°43' E 002°09'1312.9
2014-Oct-20 16:33N 51°36' E 002°26'1412.5
2014-Oct-20 15:25N 51°32' E 002°48'1213.4
2014-Oct-20 14:31N 51°25' E 003°04'7 7.6
2014-Oct-20 13:33N 51°21' E 003°13'0 0.0
2014-Oct-20 12:32N 51°21' E 003°13'0 0.0
2014-Oct-20 11:32N 51°21' E 003°13'0 0.0
2014-Oct-20 10:32N 51°21' E 003°13'0 0.0
2014-Oct-20 09:32N 51°21' E 003°13'0 0.0
2014-Oct-20 08:26N 51°21' E 003°13'0 0.0
2014-Oct-20 07:26N 51°21' E 003°13'0 0.0
2014-Oct-20 06:14N 51°21' E 003°13'0 0.0
2014-Oct-20 05:32N 51°21' E 003°13'0 0.0
2014-Oct-20 04:32N 51°21' E 003°13'0 0.0
2014-Oct-20 03:32N 51°21' E 003°13'0 0.0
2014-Oct-20 02:20N 51°21' E 003°13'0 0.0
2014-Oct-20 01:11N 51°21' E 003°13'0 0.0
2014-Oct-20 00:32N 51°21' E 003°13'0 0.0
2014-Oct-19 23:23N 51°21' E 003°13'0 0.0
2014-Oct-19 20:14N 51°21' E 003°13'0 0.0
2014-Oct-19 18:20N 51°21' E 003°13'0 0.0
2014-Oct-19 16:20N 51°21' E 003°13'0 0.0
2014-Oct-19 15:23N 51°21' E 003°13'0 0.0
2014-Oct-19 14:26N 51°21' E 003°13'0 0.0
2014-Oct-19 13:29N 51°21' E 003°13'0 0.0
2014-Oct-19 12:14N 51°21' E 003°13'0 0.0
2014-Oct-19 11:08N 51°21' E 003°13'0 0.0
2014-Oct-19 10:23N 51°21' E 003°13'0 0.0
2014-Oct-19 09:32N 51°21' E 003°13'0 0.0
2014-Oct-19 08:32N 51°21' E 003°13'0 0.0
2014-Oct-19 07:26N 51°21' E 003°13'0 0.0
2014-Oct-19 06:26N 51°21' E 003°13'0 0.0
2014-Oct-19 05:32N 51°21' E 003°13'0 0.0
2014-Oct-19 04:26N 51°21' E 003°13'0 0.0
2014-Oct-19 03:26N 51°21' E 003°13'0 0.0
2014-Oct-19 02:20N 51°21' E 003°13'0 0.0
2014-Oct-19 01:29N 51°21' E 003°13'0 0.0
2014-Oct-19 00:32N 51°21' E 003°13'0 0.0
2014-Oct-18 23:29N 51°21' E 003°13'4 4.1
2014-Oct-18 22:31N 51°23' E 003°09'2115.6
2014-Oct-18 21:09N 51°35' E 002°39'916.1
2014-Oct-18 20:33N 51°37' E 002°25'1615.9
2014-Oct-18 19:33N 51°37' E 001°59'1716.9
2014-Oct-18 18:34N 51°30' E 001°35'1514.7
2014-Oct-18 17:33N 51°29' E 001°11'1514.6
2014-Oct-18 16:33N 51°29' E 000°48'1514.5
2014-Oct-18 15:34N 51°27' E 000°25'6 6.3
2014-Oct-18 14:33N 51°28' E 000°15'0 0.0
2014-Oct-18 13:32N 51°28' E 000°15'0 0.0
2014-Oct-18 12:32N 51°28' E 000°15'0 0.0
2014-Oct-18 11:32N 51°28' E 000°15'0 0.0
2014-Oct-18 10:32N 51°28' E 000°15'0 0.0
2014-Oct-18 09:32N 51°28' E 000°15'0 0.0
2014-Oct-18 08:32N 51°28' E 000°15'0 0.0
2014-Oct-18 07:32N 51°28' E 000°15'3 2.7
2014-Oct-18 06:34N 51°28' E 000°19'1110.7
2014-Oct-18 05:33N 51°30' E 000°36'1616.1
2014-Oct-18 04:33N 51°30' E 001°02'1616.0
2014-Oct-18 03:34N 51°29' E 001°28'1413.9
2014-Oct-18 02:33N 51°34' E 001°48'10 9.6
2014-Oct-18 01:33N 51°38' E 002°03'1212.0
2014-Oct-18 00:33N 51°39' E 002°22'1211.4
2014-Oct-17 23:29N 51°35' E 002°40'1311.9
2014-Oct-17 22:23N 51°27' E 002°57'12 6.3
2014-Oct-17 20:31N 51°21' E 003°13'0 0.0
2014-Oct-17 19:28N 51°21' E 003°13'0 0.0
2014-Oct-17 18:07N 51°21' E 003°13'0 0.0
2014-Oct-17 17:28N 51°21' E 003°13'0 0.0
2014-Oct-17 16:31N 51°21' E 003°13'0 0.0
2014-Oct-17 15:28N 51°21' E 003°13'0 0.0
2014-Oct-17 14:10N 51°21' E 003°13'0 0.0
2014-Oct-17 13:28N 51°21' E 003°13'1 0.9
2014-Oct-17 12:33N 51°21' E 003°12'1615.3
2014-Oct-17 11:31N 51°30' E 002°51'1616.0
2014-Oct-17 10:33N 51°36' E 002°28'1616.4
2014-Oct-17 09:34N 51°38' E 002°02'1817.9
2014-Oct-17 08:34N 51°30' E 001°36'1717.3
2014-Oct-17 07:34N 51°29' E 001°08'1716.9
2014-Oct-17 06:34N 51°30' E 000°41'1212.0
2014-Oct-17 05:34N 51°27' E 000°23'5 5.0
2014-Oct-17 04:34N 51°28' E 000°15'0 0.0
2014-Oct-17 03:32N 51°28' E 000°15'0 0.0
2014-Oct-17 02:32N 51°28' E 000°15'0 0.0
2014-Oct-17 01:32N 51°28' E 000°15'0 0.0
2014-Oct-17 00:32N 51°28' E 000°15'0 0.0
2014-Oct-16 23:32N 51°28' E 000°15'2 2.3
2014-Oct-16 22:34N 51°28' E 000°18'9 8.5
2014-Oct-16 21:33N 51°30' E 000°32'1312.9
2014-Oct-16 20:33N 51°30' E 000°53'1414.0
2014-Oct-16 19:34N 51°29' E 001°15'1413.8
2014-Oct-16 18:33N 51°31' E 001°37'1413.6
2014-Oct-16 17:33N 51°36' E 001°57'1514.5
2014-Oct-16 16:33N 51°35' E 002°21'1514.9
2014-Oct-16 15:33N 51°33' E 002°45'1515.5
2014-Oct-16 14:33N 51°24' E 003°05'6 6.0
2014-Oct-16 13:33N 51°21' E 003°13'0 0.0
2014-Oct-16 12:32N 51°21' E 003°13'0 0.0
2014-Oct-16 11:32N 51°21' E 003°13'0 0.0
2014-Oct-16 10:32N 51°21' E 003°13'0 0.0
2014-Oct-16 09:29N 51°21' E 003°13'0 0.0
2014-Oct-16 08:32N 51°21' E 003°13'0 0.1
2014-Oct-16 07:32N 51°21' E 003°13'1010.7
2014-Oct-16 06:33N 51°26' E 002°59'1616.4
2014-Oct-16 05:33N 51°34' E 002°36'1717.4
2014-Oct-16 04:33N 51°32' E 002°08'1615.9
2014-Oct-16 03:33N 51°32' E 001°42'1615.7
2014-Oct-16 02:34N 51°29' E 001°18'1514.5
2014-Oct-16 01:34N 51°29' E 000°54'  

Dump ship's entire track history